createdAt,value
2022-12-23T00:01:57.152Z,65.80
2022-12-23T00:04:24.172Z,65.80
2022-12-23T00:06:50.844Z,65.80
2022-12-23T00:09:17.813Z,65.80
2022-12-23T00:12:04.637Z,65.70
2022-12-23T00:14:50.001Z,65.70
2022-12-23T00:17:22.657Z,65.70
2022-12-23T00:19:50.007Z,65.70
2022-12-23T00:22:16.932Z,65.60
2022-12-23T00:24:43.868Z,65.60
2022-12-23T00:27:10.621Z,65.60
2022-12-23T00:29:37.960Z,65.60
2022-12-23T00:32:05.196Z,65.60
2022-12-23T00:34:31.888Z,65.70
2022-12-23T00:36:58.876Z,65.60
2022-12-23T00:39:44.027Z,65.50
2022-12-23T00:42:29.509Z,65.50
2022-12-23T00:45:15.717Z,65.50
2022-12-23T00:48:05.443Z,65.40
2022-12-23T00:50:35.274Z,65.50
2022-12-23T00:53:02.082Z,65.40
2022-12-23T00:55:28.790Z,65.40
2022-12-23T00:57:55.698Z,65.40
2022-12-23T01:00:42.793Z,65.40
2022-12-23T01:03:32.904Z,65.20
2022-12-23T01:06:01.078Z,65.20
2022-12-23T01:08:28.647Z,65.30
2022-12-23T01:10:55.776Z,65.50
2022-12-23T01:13:22.578Z,65.50
2022-12-23T01:15:49.338Z,65.50
2022-12-23T01:18:15.999Z,65.40
2022-12-23T01:20:42.786Z,65.40
2022-12-23T01:23:09.414Z,65.30
2022-12-23T01:25:36.109Z,65.30
2022-12-23T01:28:02.957Z,65.30
2022-12-23T01:30:29.758Z,65.30
2022-12-23T01:32:56.407Z,65.30
2022-12-23T01:35:23.086Z,65.20
2022-12-23T01:37:49.932Z,65.20
2022-12-23T01:40:16.680Z,65.20
2022-12-23T01:42:43.565Z,65.30
2022-12-23T01:45:36.739Z,65.30
2022-12-23T01:48:15.922Z,65.50
2022-12-23T01:50:53.387Z,65.50
2022-12-23T01:53:20.361Z,65.40
2022-12-23T01:55:57.204Z,65.40
2022-12-23T01:58:34.935Z,65.60
2022-12-23T02:01:20.979Z,65.40
2022-12-23T02:03:49.989Z,65.30
2022-12-23T02:06:52.546Z,65.40
2022-12-23T02:09:27.112Z,65.50
2022-12-23T02:12:15.831Z,65.50
2022-12-23T02:15:35.057Z,65.60
2022-12-23T02:18:25.744Z,65.70
2022-12-23T02:21:20.769Z,65.90
2022-12-23T02:24:24.653Z,65.70
2022-12-23T02:27:30.499Z,65.80
2022-12-23T02:30:24.544Z,65.80
2022-12-23T02:33:14.109Z,65.90
2022-12-23T02:35:59.422Z,65.90
2022-12-23T02:38:28.353Z,65.90
2022-12-23T02:41:14.876Z,65.80
2022-12-23T02:44:03.973Z,65.90
2022-12-23T02:46:34.318Z,65.90
2022-12-23T02:49:16.320Z,65.90
2022-12-23T02:51:49.553Z,65.90
2022-12-23T02:54:20.724Z,65.80
2022-12-23T02:56:51.072Z,65.80
2022-12-23T02:59:22.948Z,65.80
2022-12-23T03:01:50.499Z,65.90
2022-12-23T03:04:17.375Z,65.90
2022-12-23T03:06:48.134Z,65.70
2022-12-23T03:09:24.820Z,65.80
2022-12-23T03:12:02.897Z,65.70
2022-12-23T03:14:35.787Z,65.70
2022-12-23T03:17:40.108Z,65.70
2022-12-23T03:20:31.364Z,66.00
2022-12-23T03:23:11.615Z,65.90
2022-12-23T03:25:45.207Z,65.70
2022-12-23T03:28:20.398Z,65.60
2022-12-23T03:30:52.690Z,65.70
2022-12-23T03:33:42.471Z,66.00
2022-12-23T03:36:18.263Z,66.00
2022-12-23T03:38:46.010Z,65.90
2022-12-23T03:41:25.511Z,65.90
2022-12-23T03:44:00.528Z,66.10
2022-12-23T03:46:45.923Z,66.20
2022-12-23T03:49:30.820Z,66.20
2022-12-23T03:52:03.678Z,66.20
2022-12-23T03:54:40.936Z,67.00
2022-12-23T03:57:08.627Z,66.30
2022-12-23T03:59:38.680Z,66.30
2022-12-23T04:02:08.418Z,66.20
2022-12-23T04:05:03.118Z,66.10
2022-12-23T04:07:41.273Z,66.20
2022-12-23T04:10:09.297Z,66.10
2022-12-23T04:12:37.821Z,66.00
2022-12-23T04:15:10.697Z,66.10
2022-12-23T04:17:39.945Z,66.00
2022-12-23T04:20:07.494Z,65.90
2022-12-23T04:22:34.502Z,65.80
2022-12-23T04:25:01.191Z,65.70
2022-12-23T04:27:28.088Z,65.50
2022-12-23T04:29:54.800Z,65.50
2022-12-23T04:32:21.712Z,65.50
2022-12-23T04:34:48.403Z,65.30
2022-12-23T04:37:15.047Z,65.20
2022-12-23T04:39:42.007Z,65.10
2022-12-23T04:42:08.732Z,65.00
2022-12-23T04:44:35.642Z,65.70
2022-12-23T04:47:02.368Z,65.10
2022-12-23T04:49:30.111Z,65.10
2022-12-23T04:51:57.046Z,65.10
2022-12-23T04:54:23.718Z,65.10
2022-12-23T04:56:50.617Z,65.10
2022-12-23T04:59:17.330Z,65.10
2022-12-23T05:01:44.580Z,65.00
2022-12-23T05:04:11.781Z,65.00
2022-12-23T05:06:38.599Z,64.90
2022-12-23T05:09:06.281Z,64.80
2022-12-23T05:11:37.112Z,64.80
2022-12-23T05:14:07.417Z,64.70
2022-12-23T05:16:34.271Z,64.70
2022-12-23T05:19:01.081Z,64.60
2022-12-23T05:21:28.003Z,64.40
2022-12-23T05:23:55.328Z,64.40
2022-12-23T05:26:22.320Z,64.40
2022-12-23T05:28:49.010Z,64.40
2022-12-23T05:31:16.997Z,64.50
2022-12-23T05:33:44.407Z,64.50
2022-12-23T05:36:11.776Z,64.50
2022-12-23T05:38:38.837Z,64.50
2022-12-23T05:41:06.142Z,64.50
2022-12-23T05:43:33.314Z,64.50
2022-12-23T05:46:01.107Z,64.50
2022-12-23T05:48:27.922Z,64.60
2022-12-23T05:50:54.724Z,64.50
2022-12-23T05:53:21.738Z,64.60
2022-12-23T05:55:48.585Z,65.30
2022-12-23T05:58:15.586Z,64.70
2022-12-23T06:00:42.457Z,64.70
2022-12-23T06:03:09.817Z,64.70
2022-12-23T06:05:38.786Z,64.70
2022-12-23T06:08:06.093Z,64.70
2022-12-23T06:10:33.077Z,64.80
2022-12-23T06:12:59.691Z,64.70
2022-12-23T06:15:26.588Z,64.70
2022-12-23T06:17:53.346Z,64.80
2022-12-23T06:20:21.076Z,64.80
2022-12-23T06:22:48.552Z,64.80
2022-12-23T06:25:15.348Z,64.70
2022-12-23T06:27:42.144Z,64.70
2022-12-23T06:30:10.066Z,64.80
2022-12-23T06:32:38.749Z,64.80
2022-12-23T06:35:07.725Z,64.80
2022-12-23T06:37:34.587Z,65.40
2022-12-23T06:40:01.516Z,64.70
2022-12-23T06:42:28.203Z,64.60
2022-12-23T06:44:55.224Z,64.50
2022-12-23T06:47:22.015Z,64.40
2022-12-23T06:49:49.384Z,64.50
2022-12-23T06:52:16.758Z,64.50
2022-12-23T06:54:43.430Z,64.50
2022-12-23T06:57:10.340Z,64.60
2022-12-23T06:59:37.222Z,64.50
2022-12-23T07:02:04.486Z,64.50
2022-12-23T07:04:31.547Z,64.50
2022-12-23T07:06:58.738Z,64.30
2022-12-23T07:09:26.277Z,64.30
2022-12-23T07:11:53.029Z,64.30
2022-12-23T07:14:19.823Z,64.40
2022-12-23T07:16:46.698Z,64.40
2022-12-23T07:19:13.533Z,64.20
2022-12-23T07:21:40.426Z,64.10
2022-12-23T07:24:07.663Z,64.20
2022-12-23T07:26:34.494Z,64.10
2022-12-23T07:29:01.953Z,64.10
2022-12-23T07:31:28.909Z,64.10
2022-12-23T07:33:55.910Z,64.20
2022-12-23T07:36:22.765Z,63.60
2022-12-23T07:38:51.499Z,63.70
2022-12-23T07:41:18.584Z,63.80
2022-12-23T07:43:45.722Z,63.40
2022-12-23T07:46:12.683Z,63.40
2022-12-23T07:48:42.866Z,63.60
2022-12-23T07:51:10.004Z,63.60
2022-12-23T07:53:36.779Z,63.70
2022-12-23T07:56:03.683Z,63.80
2022-12-23T07:58:30.779Z,63.80
2022-12-23T08:01:02.639Z,63.80
2022-12-23T08:03:30.038Z,63.60
2022-12-23T08:06:14.359Z,63.60
2022-12-23T08:08:43.999Z,63.40
2022-12-23T08:11:12.293Z,63.50
2022-12-23T08:13:41.185Z,63.70
2022-12-23T08:16:08.757Z,63.60
2022-12-23T08:18:37.912Z,63.60
2022-12-23T08:21:14.721Z,63.60
2022-12-23T08:23:43.363Z,63.60
2022-12-23T08:26:12.989Z,63.50
2022-12-23T08:28:40.967Z,63.60
2022-12-23T08:31:18.641Z,63.70
2022-12-23T08:33:47.908Z,63.70
2022-12-23T08:36:22.677Z,63.70
2022-12-23T08:38:52.370Z,63.70
2022-12-23T08:41:22.995Z,63.50
2022-12-23T08:43:50.451Z,63.50
2022-12-23T08:46:17.951Z,63.70
2022-12-23T08:48:49.179Z,63.70
2022-12-23T08:51:19.626Z,63.80
2022-12-23T08:53:46.610Z,63.90
2022-12-23T08:56:20.439Z,63.90
2022-12-23T08:58:50.849Z,64.00
2022-12-23T09:01:19.764Z,64.00
2022-12-23T09:03:47.569Z,64.20
2022-12-23T09:06:19.742Z,64.30
2022-12-23T09:08:50.703Z,64.30
2022-12-23T09:11:21.383Z,64.30
2022-12-23T09:13:48.522Z,64.30
2022-12-23T09:16:15.877Z,64.40
2022-12-23T09:18:42.834Z,64.50
2022-12-23T09:21:15.507Z,64.50
2022-12-23T09:23:43.049Z,64.60
2022-12-23T09:26:11.149Z,64.60
2022-12-23T09:28:40.042Z,64.50
2022-12-23T09:31:11.778Z,64.50
2022-12-23T09:33:39.289Z,64.60
2022-12-23T09:36:07.131Z,64.60
2022-12-23T09:38:34.351Z,64.60
2022-12-23T09:41:21.113Z,64.70
2022-12-23T09:44:12.854Z,64.60
2022-12-23T09:46:49.347Z,64.70
2022-12-23T09:49:18.662Z,64.70
2022-12-23T09:51:47.203Z,64.70
2022-12-23T09:54:29.468Z,64.70
2022-12-23T09:57:09.076Z,64.60
2022-12-23T10:00:03.033Z,64.30
2022-12-23T10:02:42.316Z,64.10
2022-12-23T10:05:24.408Z,64.30
2022-12-23T10:08:00.082Z,64.40
2022-12-23T10:10:45.603Z,64.50
2022-12-23T10:13:25.507Z,64.50
2022-12-23T10:15:55.069Z,64.50
2022-12-23T10:18:31.463Z,64.50
2022-12-23T10:21:07.548Z,64.50
2022-12-23T10:23:39.477Z,64.50
2022-12-23T10:26:23.231Z,64.50
2022-12-23T10:29:13.964Z,64.50
2022-12-23T10:31:56.876Z,64.50
2022-12-23T10:34:43.177Z,64.50
2022-12-23T10:37:35.802Z,64.40
2022-12-23T10:40:27.794Z,64.30
2022-12-23T10:43:19.065Z,64.20
2022-12-23T10:46:12.073Z,64.10
2022-12-23T10:49:06.104Z,64.30
2022-12-23T10:51:45.647Z,64.50
2022-12-23T10:54:20.291Z,64.60
2022-12-23T10:56:47.477Z,64.70
2022-12-23T10:59:20.625Z,64.70
2022-12-23T11:01:51.678Z,64.60
2022-12-23T11:04:24.832Z,64.60
2022-12-23T11:07:18.076Z,64.60
2022-12-23T11:09:52.318Z,64.40
2022-12-23T11:12:23.965Z,64.50
2022-12-23T11:14:54.448Z,64.50
2022-12-23T11:17:24.526Z,64.60
2022-12-23T11:20:11.128Z,65.30
2022-12-23T11:22:59.937Z,64.60
2022-12-23T11:25:43.407Z,64.60
2022-12-23T11:28:16.731Z,64.60
2022-12-23T11:31:24.123Z,64.50
2022-12-23T11:34:01.098Z,64.40
2022-12-23T11:36:29.927Z,64.20
2022-12-23T11:39:14.371Z,64.20
2022-12-23T11:41:50.001Z,64.30
2022-12-23T11:44:31.142Z,64.10
2022-12-23T11:46:58.173Z,64.10
2022-12-23T11:49:31.640Z,64.20
2022-12-23T11:52:05.757Z,64.30
2022-12-23T11:54:34.142Z,64.20
2022-12-23T11:57:05.807Z,64.10
2022-12-23T11:59:33.959Z,64.10
2022-12-23T12:02:06.060Z,64.10
2022-12-23T12:04:35.626Z,64.10
2022-12-23T12:07:05.667Z,64.10
2022-12-23T12:09:34.252Z,63.90
2022-12-23T12:12:17.451Z,63.80
2022-12-23T12:14:50.172Z,63.60
2022-12-23T12:17:35.998Z,63.50
2022-12-23T12:20:27.437Z,63.50
2022-12-23T12:23:06.518Z,63.70
2022-12-23T12:25:47.559Z,63.30
2022-12-23T12:28:22.482Z,63.60
2022-12-23T12:31:23.920Z,63.90
2022-12-23T12:34:00.308Z,64.70
2022-12-23T12:36:45.373Z,64.30
2022-12-23T12:39:43.350Z,64.40
2022-12-23T12:42:09.993Z,64.30
2022-12-23T12:44:45.973Z,64.20
2022-12-23T12:47:51.999Z,64.20
2022-12-23T12:50:13.784Z,64.10
2022-12-23T12:52:42.104Z,64.10
2022-12-23T12:55:22.455Z,64.10
2022-12-23T12:57:49.319Z,64.20
2022-12-23T13:00:22.010Z,64.10
2022-12-23T13:03:32.123Z,64.10
2022-12-23T13:06:18.707Z,64.30
2022-12-23T13:09:02.498Z,64.10
2022-12-23T13:11:45.198Z,64.10
2022-12-23T13:14:37.798Z,64.10
2022-12-23T13:17:19.601Z,64.10
2022-12-23T13:19:52.182Z,64.20
2022-12-23T13:22:28.345Z,64.20
2022-12-23T13:25:16.618Z,64.30
2022-12-23T13:28:18.192Z,64.40
2022-12-23T13:31:00.451Z,64.60
2022-12-23T13:34:23.044Z,64.60
2022-12-23T13:37:24.429Z,64.70
2022-12-23T13:40:29.282Z,64.70
2022-12-23T13:43:02.289Z,64.70
2022-12-23T13:45:35.659Z,64.70
2022-12-23T13:48:28.226Z,64.70
2022-12-23T13:51:28.971Z,64.80
2022-12-23T13:54:26.407Z,65.00
2022-12-23T13:57:16.236Z,65.00
2022-12-23T13:59:59.742Z,65.20
2022-12-23T14:02:42.016Z,65.10
2022-12-23T14:05:41.639Z,65.10
2022-12-23T14:08:25.920Z,65.00
2022-12-23T14:11:10.911Z,65.00
2022-12-23T14:13:51.661Z,65.00
2022-12-23T14:16:40.511Z,65.00
2022-12-23T14:19:27.217Z,65.10
2022-12-23T14:22:21.983Z,65.40
2022-12-23T14:25:21.427Z,65.40
2022-12-23T14:28:05.760Z,65.70
2022-12-23T14:30:40.391Z,65.50
2022-12-23T14:33:31.268Z,65.30
2022-12-23T14:36:23.306Z,65.20
2022-12-23T14:39:12.024Z,65.30
2022-12-23T14:41:53.516Z,65.30
2022-12-23T14:44:41.721Z,65.30
2022-12-23T14:47:31.460Z,65.20
2022-12-23T14:50:37.178Z,65.90
2022-12-23T14:53:27.361Z,66.30
2022-12-23T14:56:15.090Z,66.70
2022-12-23T14:58:50.823Z,67.10
2022-12-23T15:01:19.774Z,66.70
2022-12-23T15:03:57.572Z,66.40
2022-12-23T15:06:40.512Z,66.60
2022-12-23T15:09:09.604Z,67.00
2022-12-23T15:11:37.410Z,66.80
2022-12-23T15:14:10.077Z,67.00
2022-12-23T15:16:40.299Z,67.20
2022-12-23T15:19:25.471Z,67.30
2022-12-23T15:22:17.238Z,67.80
2022-12-23T15:24:48.050Z,67.90
2022-12-23T15:27:29.232Z,67.80
2022-12-23T15:29:56.891Z,68.70
2022-12-23T15:32:25.283Z,68.60
2022-12-23T15:34:56.546Z,69.10
2022-12-23T15:37:29.274Z,69.00
2022-12-23T15:40:06.217Z,69.10
2022-12-23T15:42:38.726Z,69.00
2022-12-23T15:45:30.557Z,69.40
2022-12-23T15:47:57.406Z,69.80
2022-12-23T15:50:24.398Z,69.50
2022-12-23T15:52:54.449Z,69.40
2022-12-23T15:55:35.234Z,69.30
2022-12-23T15:58:04.022Z,69.40
2022-12-23T16:00:41.657Z,69.80
2022-12-23T16:03:32.430Z,70.00
2022-12-23T16:06:26.732Z,70.30
2022-12-23T16:09:16.681Z,70.00
2022-12-23T16:12:15.806Z,69.70
2022-12-23T16:14:49.633Z,69.70
2022-12-23T16:17:23.872Z,69.30
2022-12-23T16:19:56.227Z,69.40
2022-12-23T16:22:33.110Z,69.20
2022-12-23T16:25:16.007Z,69.10
2022-12-23T16:27:44.784Z,69.20
2022-12-23T16:30:21.284Z,68.90
2022-12-23T16:32:59.699Z,69.00
2022-12-23T16:35:40.405Z,69.50
2022-12-23T16:38:33.378Z,69.50
2022-12-23T16:41:00.170Z,69.40
2022-12-23T16:43:26.883Z,69.30
2022-12-23T16:45:57.801Z,69.10
2022-12-23T16:48:40.091Z,69.20
2022-12-23T16:51:14.808Z,69.80
2022-12-23T16:53:41.729Z,69.00
2022-12-23T16:56:20.812Z,68.80
2022-12-23T16:58:48.311Z,69.00
2022-12-23T17:01:22.150Z,68.90
2022-12-23T17:03:49.588Z,68.90
2022-12-23T17:06:17.547Z,68.80
2022-12-23T17:08:44.493Z,68.70
2022-12-23T17:11:37.637Z,68.60
2022-12-23T17:14:10.374Z,68.60
2022-12-23T17:16:40.811Z,68.50
2022-12-23T17:19:07.580Z,68.50
2022-12-23T17:21:37.219Z,68.50
2022-12-23T17:24:17.433Z,68.50
2022-12-23T17:26:44.182Z,68.50
2022-12-23T17:29:12.748Z,68.40
2022-12-23T17:31:41.948Z,68.50
2022-12-23T17:34:23.875Z,68.40
2022-12-23T17:36:51.446Z,68.40
2022-12-23T17:39:19.376Z,68.20
2022-12-23T17:41:46.577Z,68.10
2022-12-23T17:44:14.838Z,68.00
2022-12-23T17:46:42.034Z,68.70
2022-12-23T17:49:08.953Z,67.90
2022-12-23T17:51:35.892Z,67.80
2022-12-23T17:54:04.579Z,67.70
2022-12-23T17:56:31.971Z,67.30
2022-12-23T17:58:58.926Z,67.10
2022-12-23T18:01:29.834Z,66.90
2022-12-23T18:03:58.799Z,66.60
2022-12-23T18:06:28.269Z,66.50
2022-12-23T18:08:57.299Z,66.00
2022-12-23T18:11:35.106Z,66.10
2022-12-23T18:14:03.242Z,65.80
2022-12-23T18:16:30.413Z,66.00
2022-12-23T18:18:57.373Z,65.90
2022-12-23T18:21:26.778Z,65.80
2022-12-23T18:23:55.136Z,65.70
2022-12-23T18:26:22.032Z,65.70
2022-12-23T18:28:48.807Z,65.80
2022-12-23T18:31:19.611Z,65.70
2022-12-23T18:33:46.918Z,65.50
2022-12-23T18:36:27.232Z,65.30
2022-12-23T18:38:54.697Z,63.80
2022-12-23T18:41:22.378Z,64.80
2022-12-23T18:43:50.426Z,64.60
2022-12-23T18:46:17.680Z,64.30
2022-12-23T18:48:44.448Z,64.10
2022-12-23T18:51:15.808Z,63.70
2022-12-23T18:53:43.541Z,63.40
2022-12-23T18:56:20.938Z,63.70
2022-12-23T18:58:48.221Z,62.80
2022-12-23T19:01:16.803Z,63.80
2022-12-23T19:03:44.409Z,62.90
2022-12-23T19:06:13.780Z,62.70
2022-12-23T19:08:41.708Z,62.50
2022-12-23T19:11:17.884Z,62.50
2022-12-23T19:13:45.519Z,61.80
2022-12-23T19:16:18.044Z,62.30
2022-12-23T19:18:46.812Z,61.10
2022-12-23T19:21:14.371Z,61.80
2022-12-23T19:23:41.363Z,61.90
2022-12-23T19:26:13.956Z,61.70
2022-12-23T19:28:41.506Z,61.50
2022-12-23T19:31:12.973Z,61.60
2022-12-23T19:33:42.145Z,60.70
2022-12-23T19:36:14.629Z,61.20
2022-12-23T19:38:41.864Z,61.00
2022-12-23T19:41:12.426Z,60.70
2022-12-23T19:43:40.031Z,60.50
2022-12-23T19:46:10.239Z,60.70
2022-12-23T19:48:37.936Z,60.50
2022-12-23T19:51:10.487Z,60.60
2022-12-23T19:53:38.379Z,60.70
2022-12-23T19:56:08.676Z,60.50
2022-12-23T19:58:39.420Z,60.40
2022-12-23T20:01:15.926Z,60.50
2022-12-23T20:03:44.049Z,60.00
2022-12-23T20:06:16.259Z,60.40
2022-12-23T20:08:43.774Z,60.10
2022-12-23T20:11:17.571Z,60.40
2022-12-23T20:13:45.174Z,60.20
2022-12-23T20:16:12.414Z,60.40
2022-12-23T20:18:39.545Z,60.30
2022-12-23T20:21:06.947Z,60.30
2022-12-23T20:23:34.643Z,59.90
2022-12-23T20:26:01.582Z,60.00
2022-12-23T20:28:29.115Z,60.10
2022-12-23T20:31:08.165Z,60.00
2022-12-23T20:33:39.089Z,59.90
2022-12-23T20:36:07.373Z,59.80
2022-12-23T20:38:35.576Z,60.10
2022-12-23T20:41:06.146Z,60.00
2022-12-23T20:43:34.893Z,59.80
2022-12-23T20:46:02.893Z,59.90
2022-12-23T20:48:34.082Z,59.60
2022-12-23T20:51:17.827Z,59.80
2022-12-23T20:53:45.910Z,59.50
2022-12-23T20:56:14.843Z,59.80
2022-12-23T20:59:02.536Z,59.80
2022-12-23T21:01:40.579Z,59.70
2022-12-23T21:04:16.357Z,59.40
2022-12-23T21:06:44.388Z,59.50
2022-12-23T21:09:13.029Z,59.60
2022-12-23T21:11:43.565Z,59.60
2022-12-23T21:14:10.954Z,59.40
2022-12-23T21:16:38.266Z,59.60
2022-12-23T21:19:07.553Z,59.50
2022-12-23T21:21:34.811Z,59.50
2022-12-23T21:24:04.692Z,59.50
2022-12-23T21:26:33.230Z,59.50
2022-12-23T21:29:02.045Z,59.30
2022-12-23T21:31:30.930Z,59.40
2022-12-23T21:33:58.203Z,59.50
2022-12-23T21:36:27.693Z,59.40
2022-12-23T21:38:54.937Z,59.30
2022-12-23T21:41:29.278Z,59.50
2022-12-23T21:43:57.714Z,59.50
2022-12-23T21:46:25.227Z,59.50
2022-12-23T21:48:52.282Z,59.40
2022-12-23T21:51:26.215Z,59.40
2022-12-23T21:53:55.300Z,59.30
2022-12-23T21:56:25.974Z,59.40
2022-12-23T21:59:02.077Z,59.40
2022-12-23T22:01:29.543Z,59.00
2022-12-23T22:03:56.879Z,59.20
2022-12-23T22:06:30.201Z,59.00
2022-12-23T22:08:57.420Z,59.00
2022-12-23T22:11:26.824Z,59.00
2022-12-23T22:13:55.029Z,58.70
2022-12-23T22:16:23.565Z,59.00
2022-12-23T22:18:51.546Z,59.20
2022-12-23T22:21:20.796Z,59.20
2022-12-23T22:23:49.705Z,58.40
2022-12-23T22:26:24.550Z,58.50
2022-12-23T22:28:52.707Z,58.60
2022-12-23T22:31:34.761Z,58.80
2022-12-23T22:34:02.094Z,58.80
2022-12-23T22:36:29.123Z,58.90
2022-12-23T22:38:58.018Z,58.80
2022-12-23T22:41:27.980Z,58.70
2022-12-23T22:43:55.794Z,58.80
2022-12-23T22:46:24.511Z,58.50
2022-12-23T22:48:52.428Z,58.60
2022-12-23T22:51:26.347Z,58.60
2022-12-23T22:53:53.975Z,58.60
2022-12-23T22:56:22.130Z,58.60
2022-12-23T22:58:50.133Z,58.50
2022-12-23T23:01:23.304Z,58.30
2022-12-23T23:03:57.189Z,58.20
2022-12-23T23:06:30.230Z,58.30
2022-12-23T23:08:58.204Z,58.10
2022-12-23T23:11:27.175Z,58.30
2022-12-23T23:13:55.137Z,58.20
2022-12-23T23:16:22.436Z,58.20
2022-12-23T23:18:51.831Z,58.20
2022-12-23T23:21:19.037Z,58.20
2022-12-23T23:23:46.442Z,58.10
2022-12-23T23:26:13.652Z,58.00
2022-12-23T23:28:41.922Z,58.00
2022-12-23T23:31:40.569Z,58.00
2022-12-23T23:33:58.087Z,57.90
2022-12-23T23:36:25.148Z,57.90
2022-12-23T23:38:52.113Z,57.90
2022-12-23T23:41:23.178Z,57.90
2022-12-23T23:43:51.512Z,57.90
2022-12-23T23:46:18.794Z,57.70
2022-12-23T23:48:45.633Z,57.80
2022-12-23T23:51:12.679Z,57.80
2022-12-23T23:53:40.580Z,57.60
2022-12-23T23:56:08.497Z,57.50
2022-12-23T23:58:36.637Z,57.50
